sensor_id;sensor_type;location;lat;lon;timestamp;P1;durP1;ratioP1;P2;durP2;ratioP2
57113;SDS011;42994;51.606;9.988;2023-08-06T00:00:30;2.00;;;1.80;;
57113;SDS011;42994;51.606;9.988;2023-08-06T00:02:58;3.33;;;2.10;;
57113;SDS011;42994;51.606;9.988;2023-08-06T00:05:24;2.28;;;1.90;;
57113;SDS011;42994;51.606;9.988;2023-08-06T00:07:51;1.98;;;1.83;;
57113;SDS011;42994;51.606;9.988;2023-08-06T00:10:18;2.50;;;2.30;;
57113;SDS011;42994;51.606;9.988;2023-08-06T00:12:44;4.97;;;2.70;;
57113;SDS011;42994;51.606;9.988;2023-08-06T00:15:11;7.45;;;4.13;;
57113;SDS011;42994;51.606;9.988;2023-08-06T00:17:38;4.40;;;4.00;;
57113;SDS011;42994;51.606;9.988;2023-08-06T00:20:07;5.75;;;3.53;;
57113;SDS011;42994;51.606;9.988;2023-08-06T00:22:34;2.75;;;2.50;;
57113;SDS011;42994;51.606;9.988;2023-08-06T00:25:03;4.43;;;2.17;;
57113;SDS011;42994;51.606;9.988;2023-08-06T00:27:30;2.47;;;1.75;;
57113;SDS011;42994;51.606;9.988;2023-08-06T00:29:57;3.88;;;1.75;;
57113;SDS011;42994;51.606;9.988;2023-08-06T00:32:24;2.53;;;2.05;;
57113;SDS011;42994;51.606;9.988;2023-08-06T00:34:51;1.70;;;1.60;;
57113;SDS011;42994;51.606;9.988;2023-08-06T00:37:19;5.68;;;1.92;;
57113;SDS011;42994;51.606;9.988;2023-08-06T00:39:46;2.58;;;1.58;;
57113;SDS011;42994;51.606;9.988;2023-08-06T00:42:12;1.75;;;1.52;;
57113;SDS011;42994;51.606;9.988;2023-08-06T00:44:39;2.05;;;1.48;;
57113;SDS011;42994;51.606;9.988;2023-08-06T00:47:07;1.88;;;1.60;;
57113;SDS011;42994;51.606;9.988;2023-08-06T00:49:34;2.20;;;1.70;;
57113;SDS011;42994;51.606;9.988;2023-08-06T00:52:02;2.33;;;1.73;;
57113;SDS011;42994;51.606;9.988;2023-08-06T00:54:31;2.05;;;1.70;;
57113;SDS011;42994;51.606;9.988;2023-08-06T00:56:59;2.70;;;1.60;;
57113;SDS011;42994;51.606;9.988;2023-08-06T00:59:29;1.55;;;1.45;;
57113;SDS011;42994;51.606;9.988;2023-08-06T01:01:58;1.50;;;1.40;;
57113;SDS011;42994;51.606;9.988;2023-08-06T01:04:25;1.77;;;1.55;;
57113;SDS011;42994;51.606;9.988;2023-08-06T01:06:55;3.03;;;1.60;;
57113;SDS011;42994;51.606;9.988;2023-08-06T01:09:33;2.17;;;1.60;;
57113;SDS011;42994;51.606;9.988;2023-08-06T01:12:09;2.85;;;1.50;;
57113;SDS011;42994;51.606;9.988;2023-08-06T01:14:45;1.75;;;1.60;;
57113;SDS011;42994;51.606;9.988;2023-08-06T01:17:20;2.97;;;1.10;;
57113;SDS011;42994;51.606;9.988;2023-08-06T01:19:46;2.78;;;1.70;;
57113;SDS011;42994;51.606;9.988;2023-08-06T01:22:14;2.95;;;1.20;;
57113;SDS011;42994;51.606;9.988;2023-08-06T01:24:41;2.40;;;1.50;;
57113;SDS011;42994;51.606;9.988;2023-08-06T01:27:14;2.10;;;1.50;;
57113;SDS011;42994;51.606;9.988;2023-08-06T01:29:50;2.10;;;1.88;;
57113;SDS011;42994;51.606;9.988;2023-08-06T01:32:23;6.72;;;2.97;;
57113;SDS011;42994;51.606;9.988;2023-08-06T01:34:52;5.60;;;3.10;;
57113;SDS011;42994;51.606;9.988;2023-08-06T01:37:22;4.50;;;2.92;;
57113;SDS011;42994;51.606;9.988;2023-08-06T01:39:49;4.18;;;2.10;;
57113;SDS011;42994;51.606;9.988;2023-08-06T01:42:16;3.45;;;1.70;;
57113;SDS011;42994;51.606;9.988;2023-08-06T01:44:42;1.77;;;1.67;;
57113;SDS011;42994;51.606;9.988;2023-08-06T01:47:09;2.05;;;1.65;;
57113;SDS011;42994;51.606;9.988;2023-08-06T01:49:35;2.78;;;1.65;;
57113;SDS011;42994;51.606;9.988;2023-08-06T01:52:02;2.67;;;1.63;;
57113;SDS011;42994;51.606;9.988;2023-08-06T01:54:30;1.58;;;1.48;;
57113;SDS011;42994;51.606;9.988;2023-08-06T01:56:57;2.33;;;2.05;;
57113;SDS011;42994;51.606;9.988;2023-08-06T01:59:38;5.70;;;1.90;;
57113;SDS011;42994;51.606;9.988;2023-08-06T02:02:05;2.70;;;1.80;;
57113;SDS011;42994;51.606;9.988;2023-08-06T02:04:32;1.80;;;1.70;;
57113;SDS011;42994;51.606;9.988;2023-08-06T02:06:58;5.35;;;1.90;;
57113;SDS011;42994;51.606;9.988;2023-08-06T02:09:25;2.92;;;1.80;;
57113;SDS011;42994;51.606;9.988;2023-08-06T02:11:53;2.40;;;1.90;;
57113;SDS011;42994;51.606;9.988;2023-08-06T02:14:20;2.00;;;1.88;;
57113;SDS011;42994;51.606;9.988;2023-08-06T02:16:47;3.25;;;2.10;;
57113;SDS011;42994;51.606;9.988;2023-08-06T02:19:14;4.00;;;1.80;;
57113;SDS011;42994;51.606;9.988;2023-08-06T02:21:41;4.28;;;1.92;;
57113;SDS011;42994;51.606;9.988;2023-08-06T02:24:08;1.70;;;1.60;;
57113;SDS011;42994;51.606;9.988;2023-08-06T02:26:34;2.75;;;2.05;;
57113;SDS011;42994;51.606;9.988;2023-08-06T02:29:02;2.80;;;1.60;;
57113;SDS011;42994;51.606;9.988;2023-08-06T02:31:29;2.08;;;1.48;;
57113;SDS011;42994;51.606;9.988;2023-08-06T02:33:57;3.20;;;1.80;;
57113;SDS011;42994;51.606;9.988;2023-08-06T02:36:23;1.75;;;1.50;;
57113;SDS011;42994;51.606;9.988;2023-08-06T02:38:54;3.65;;;2.10;;
57113;SDS011;42994;51.606;9.988;2023-08-06T02:41:21;6.97;;;3.70;;
57113;SDS011;42994;51.606;9.988;2023-08-06T02:43:48;5.93;;;2.80;;
57113;SDS011;42994;51.606;9.988;2023-08-06T02:46:16;5.35;;;3.90;;
57113;SDS011;42994;51.606;9.988;2023-08-06T02:48:42;11.90;;;4.03;;
57113;SDS011;42994;51.606;9.988;2023-08-06T02:51:09;5.50;;;3.65;;
57113;SDS011;42994;51.606;9.988;2023-08-06T02:53:36;4.30;;;3.30;;
57113;SDS011;42994;51.606;9.988;2023-08-06T02:56:06;4.13;;;3.30;;
57113;SDS011;42994;51.606;9.988;2023-08-06T02:58:45;8.38;;;3.65;;
57113;SDS011;42994;51.606;9.988;2023-08-06T03:01:23;4.40;;;3.58;;
57113;SDS011;42994;51.606;9.988;2023-08-06T03:03:56;5.93;;;2.83;;
57113;SDS011;42994;51.606;9.988;2023-08-06T03:06:29;3.17;;;2.85;;
57113;SDS011;42994;51.606;9.988;2023-08-06T03:08:57;4.13;;;2.78;;
57113;SDS011;42994;51.606;9.988;2023-08-06T03:11:25;5.22;;;2.58;;
57113;SDS011;42994;51.606;9.988;2023-08-06T03:13:56;5.68;;;2.80;;
57113;SDS011;42994;51.606;9.988;2023-08-06T03:16:24;3.28;;;2.97;;
57113;SDS011;42994;51.606;9.988;2023-08-06T03:18:51;3.20;;;2.63;;
57113;SDS011;42994;51.606;9.988;2023-08-06T03:21:19;3.33;;;3.03;;
57113;SDS011;42994;51.606;9.988;2023-08-06T03:23:46;3.20;;;2.30;;
57113;SDS011;42994;51.606;9.988;2023-08-06T03:26:13;2.85;;;2.20;;
57113;SDS011;42994;51.606;9.988;2023-08-06T03:28:40;3.28;;;2.20;;
57113;SDS011;42994;51.606;9.988;2023-08-06T03:31:07;1.88;;;1.77;;
57113;SDS011;42994;51.606;9.988;2023-08-06T03:33:40;1.67;;;1.58;;
57113;SDS011;42994;51.606;9.988;2023-08-06T03:36:12;2.58;;;1.80;;
57113;SDS011;42994;51.606;9.988;2023-08-06T03:38:40;2.28;;;1.77;;
57113;SDS011;42994;51.606;9.988;2023-08-06T03:41:09;1.92;;;1.77;;
57113;SDS011;42994;51.606;9.988;2023-08-06T03:43:36;5.22;;;1.88;;
57113;SDS011;42994;51.606;9.988;2023-08-06T03:46:07;2.03;;;1.80;;
57113;SDS011;42994;51.606;9.988;2023-08-06T03:48:33;1.98;;;1.88;;
57113;SDS011;42994;51.606;9.988;2023-08-06T03:51:01;4.10;;;2.05;;
57113;SDS011;42994;51.606;9.988;2023-08-06T03:53:28;5.30;;;1.85;;
57113;SDS011;42994;51.606;9.988;2023-08-06T03:55:55;2.33;;;2.10;;
57113;SDS011;42994;51.606;9.988;2023-08-06T03:58:25;5.32;;;2.50;;
57113;SDS011;42994;51.606;9.988;2023-08-06T04:00:57;4.57;;;2.53;;
57113;SDS011;42994;51.606;9.988;2023-08-06T04:03:24;2.88;;;2.28;;
57113;SDS011;42994;51.606;9.988;2023-08-06T04:05:51;5.15;;;2.42;;
57113;SDS011;42994;51.606;9.988;2023-08-06T04:08:20;2.03;;;1.88;;
57113;SDS011;42994;51.606;9.988;2023-08-06T04:10:49;3.50;;;2.33;;
57113;SDS011;42994;51.606;9.988;2023-08-06T04:13:15;3.58;;;1.88;;
57113;SDS011;42994;51.606;9.988;2023-08-06T04:15:42;2.30;;;1.90;;
57113;SDS011;42994;51.606;9.988;2023-08-06T04:18:09;10.82;;;2.50;;
57113;SDS011;42994;51.606;9.988;2023-08-06T04:20:41;3.50;;;2.10;;
57113;SDS011;42994;51.606;9.988;2023-08-06T04:23:09;4.30;;;2.63;;
57113;SDS011;42994;51.606;9.988;2023-08-06T04:25:37;5.47;;;2.42;;
57113;SDS011;42994;51.606;9.988;2023-08-06T04:28:04;3.05;;;2.70;;
57113;SDS011;42994;51.606;9.988;2023-08-06T04:30:32;2.92;;;2.40;;
57113;SDS011;42994;51.606;9.988;2023-08-06T04:32:59;6.03;;;2.97;;
57113;SDS011;42994;51.606;9.988;2023-08-06T04:35:26;6.60;;;2.88;;
57113;SDS011;42994;51.606;9.988;2023-08-06T04:37:53;4.97;;;3.90;;
57113;SDS011;42994;51.606;9.988;2023-08-06T04:40:19;6.65;;;3.42;;
57113;SDS011;42994;51.606;9.988;2023-08-06T04:42:47;5.20;;;3.85;;
57113;SDS011;42994;51.606;9.988;2023-08-06T04:45:14;4.25;;;3.38;;
57113;SDS011;42994;51.606;9.988;2023-08-06T04:47:41;6.32;;;3.80;;
57113;SDS011;42994;51.606;9.988;2023-08-06T04:50:07;6.28;;;3.80;;
57113;SDS011;42994;51.606;9.988;2023-08-06T04:52:34;6.05;;;3.13;;
57113;SDS011;42994;51.606;9.988;2023-08-06T04:55:01;6.78;;;3.00;;
57113;SDS011;42994;51.606;9.988;2023-08-06T04:57:30;6.00;;;3.22;;
57113;SDS011;42994;51.606;9.988;2023-08-06T04:59:58;11.52;;;3.08;;
57113;SDS011;42994;51.606;9.988;2023-08-06T05:02:25;7.43;;;3.42;;
57113;SDS011;42994;51.606;9.988;2023-08-06T05:04:52;6.07;;;3.90;;
57113;SDS011;42994;51.606;9.988;2023-08-06T05:07:18;6.30;;;3.15;;
57113;SDS011;42994;51.606;9.988;2023-08-06T05:09:45;6.65;;;2.90;;
57113;SDS011;42994;51.606;9.988;2023-08-06T05:12:11;5.68;;;3.42;;
57113;SDS011;42994;51.606;9.988;2023-08-06T05:14:38;8.90;;;2.70;;
57113;SDS011;42994;51.606;9.988;2023-08-06T05:17:06;7.15;;;2.78;;
57113;SDS011;42994;51.606;9.988;2023-08-06T05:19:32;4.22;;;2.67;;
57113;SDS011;42994;51.606;9.988;2023-08-06T05:21:59;7.32;;;3.22;;
57113;SDS011;42994;51.606;9.988;2023-08-06T05:24:27;5.10;;;2.78;;
57113;SDS011;42994;51.606;9.988;2023-08-06T05:26:53;3.42;;;2.35;;
57113;SDS011;42994;51.606;9.988;2023-08-06T05:29:20;5.32;;;2.30;;
57113;SDS011;42994;51.606;9.988;2023-08-06T05:31:47;2.53;;;2.08;;
57113;SDS011;42994;51.606;9.988;2023-08-06T05:34:14;4.88;;;2.22;;
57113;SDS011;42994;51.606;9.988;2023-08-06T05:36:41;6.10;;;3.03;;
57113;SDS011;42994;51.606;9.988;2023-08-06T05:39:08;2.67;;;2.47;;
57113;SDS011;42994;51.606;9.988;2023-08-06T05:41:34;7.28;;;4.10;;
57113;SDS011;42994;51.606;9.988;2023-08-06T05:44:01;6.32;;;4.32;;
57113;SDS011;42994;51.606;9.988;2023-08-06T05:46:27;6.25;;;4.65;;
57113;SDS011;42994;51.606;9.988;2023-08-06T05:48:54;5.55;;;3.53;;
57113;SDS011;42994;51.606;9.988;2023-08-06T05:51:22;7.43;;;3.95;;
57113;SDS011;42994;51.606;9.988;2023-08-06T05:53:49;5.25;;;3.13;;
57113;SDS011;42994;51.606;9.988;2023-08-06T05:56:15;3.63;;;2.47;;
57113;SDS011;42994;51.606;9.988;2023-08-06T05:58:42;8.20;;;2.78;;
57113;SDS011;42994;51.606;9.988;2023-08-06T06:01:08;5.75;;;3.88;;
57113;SDS011;42994;51.606;9.988;2023-08-06T06:03:35;5.28;;;3.65;;
57113;SDS011;42994;51.606;9.988;2023-08-06T06:06:02;5.32;;;4.38;;
57113;SDS011;42994;51.606;9.988;2023-08-06T06:08:30;8.13;;;3.92;;
57113;SDS011;42994;51.606;9.988;2023-08-06T06:10:56;6.35;;;3.95;;
57113;SDS011;42994;51.606;9.988;2023-08-06T06:13:24;4.03;;;3.70;;
57113;SDS011;42994;51.606;9.988;2023-08-06T06:15:53;6.30;;;3.85;;
57113;SDS011;42994;51.606;9.988;2023-08-06T06:18:20;4.72;;;3.15;;
57113;SDS011;42994;51.606;9.988;2023-08-06T06:20:47;3.28;;;2.97;;
57113;SDS011;42994;51.606;9.988;2023-08-06T06:23:13;5.20;;;3.25;;
57113;SDS011;42994;51.606;9.988;2023-08-06T06:25:43;4.50;;;3.58;;
57113;SDS011;42994;51.606;9.988;2023-08-06T06:28:09;5.07;;;3.92;;
57113;SDS011;42994;51.606;9.988;2023-08-06T06:30:36;6.82;;;3.28;;
57113;SDS011;42994;51.606;9.988;2023-08-06T06:33:03;6.13;;;4.30;;
57113;SDS011;42994;51.606;9.988;2023-08-06T06:35:29;5.20;;;3.17;;
57113;SDS011;42994;51.606;9.988;2023-08-06T06:37:56;3.13;;;2.70;;
57113;SDS011;42994;51.606;9.988;2023-08-06T06:40:22;5.13;;;3.50;;
57113;SDS011;42994;51.606;9.988;2023-08-06T06:42:50;5.05;;;3.40;;
57113;SDS011;42994;51.606;9.988;2023-08-06T06:45:17;4.40;;;2.97;;
57113;SDS011;42994;51.606;9.988;2023-08-06T06:47:43;4.43;;;2.97;;
57113;SDS011;42994;51.606;9.988;2023-08-06T06:50:10;3.45;;;3.17;;
57113;SDS011;42994;51.606;9.988;2023-08-06T06:52:37;3.00;;;2.78;;
57113;SDS011;42994;51.606;9.988;2023-08-06T06:55:04;4.07;;;2.60;;
57113;SDS011;42994;51.606;9.988;2023-08-06T06:57:31;3.05;;;2.28;;
57113;SDS011;42994;51.606;9.988;2023-08-06T06:59:59;2.45;;;2.28;;
57113;SDS011;42994;51.606;9.988;2023-08-06T07:02:25;4.78;;;2.92;;
57113;SDS011;42994;51.606;9.988;2023-08-06T07:04:52;5.03;;;2.60;;
57113;SDS011;42994;51.606;9.988;2023-08-06T07:07:18;3.75;;;2.38;;
57113;SDS011;42994;51.606;9.988;2023-08-06T07:09:45;6.05;;;2.67;;
57113;SDS011;42994;51.606;9.988;2023-08-06T07:12:12;2.45;;;2.25;;
57113;SDS011;42994;51.606;9.988;2023-08-06T07:14:38;2.95;;;2.75;;
57113;SDS011;42994;51.606;9.988;2023-08-06T07:17:06;4.00;;;2.33;;
57113;SDS011;42994;51.606;9.988;2023-08-06T07:19:33;3.88;;;2.85;;
57113;SDS011;42994;51.606;9.988;2023-08-06T07:22:00;2.97;;;2.58;;
57113;SDS011;42994;51.606;9.988;2023-08-06T07:24:26;2.65;;;2.30;;
57113;SDS011;42994;51.606;9.988;2023-08-06T07:26:53;2.55;;;2.35;;
57113;SDS011;42994;51.606;9.988;2023-08-06T07:29:20;3.45;;;2.30;;
57113;SDS011;42994;51.606;9.988;2023-08-06T07:31:47;3.20;;;2.85;;
57113;SDS011;42994;51.606;9.988;2023-08-06T07:34:16;2.33;;;2.13;;
57113;SDS011;42994;51.606;9.988;2023-08-06T07:36:43;8.38;;;2.88;;
57113;SDS011;42994;51.606;9.988;2023-08-06T07:39:10;4.93;;;2.20;;
57113;SDS011;42994;51.606;9.988;2023-08-06T07:41:37;5.63;;;2.38;;
57113;SDS011;42994;51.606;9.988;2023-08-06T07:44:03;1.90;;;1.80;;
57113;SDS011;42994;51.606;9.988;2023-08-06T07:46:30;1.85;;;1.70;;
57113;SDS011;42994;51.606;9.988;2023-08-06T07:48:57;3.58;;;1.80;;
57113;SDS011;42994;51.606;9.988;2023-08-06T07:51:25;4.72;;;2.28;;
57113;SDS011;42994;51.606;9.988;2023-08-06T07:53:51;4.75;;;2.20;;
57113;SDS011;42994;51.606;9.988;2023-08-06T07:56:18;4.15;;;2.22;;
57113;SDS011;42994;51.606;9.988;2023-08-06T07:58:45;2.42;;;2.22;;
57113;SDS011;42994;51.606;9.988;2023-08-06T08:01:11;5.43;;;2.42;;
57113;SDS011;42994;51.606;9.988;2023-08-06T08:03:38;3.65;;;1.92;;
57113;SDS011;42994;51.606;9.988;2023-08-06T08:06:04;3.17;;;1.77;;
57113;SDS011;42994;51.606;9.988;2023-08-06T08:08:32;2.55;;;1.77;;
57113;SDS011;42994;51.606;9.988;2023-08-06T08:13:29;2.50;;;1.80;;
57113;SDS011;42994;51.606;9.988;2023-08-06T08:15:59;3.28;;;2.33;;
57113;SDS011;42994;51.606;9.988;2023-08-06T08:18:25;2.42;;;2.10;;
57113;SDS011;42994;51.606;9.988;2023-08-06T08:20:52;2.42;;;2.10;;
57113;SDS011;42994;51.606;9.988;2023-08-06T08:23:19;3.97;;;1.90;;
57113;SDS011;42994;51.606;9.988;2023-08-06T08:25:47;2.38;;;2.20;;
57113;SDS011;42994;51.606;9.988;2023-08-06T08:28:13;4.10;;;2.28;;
57113;SDS011;42994;51.606;9.988;2023-08-06T08:30:41;3.15;;;1.80;;
57113;SDS011;42994;51.606;9.988;2023-08-06T08:33:07;4.05;;;1.90;;
57113;SDS011;42994;51.606;9.988;2023-08-06T08:35:34;2.17;;;1.98;;
57113;SDS011;42994;51.606;9.988;2023-08-06T08:38:02;2.50;;;2.15;;
57113;SDS011;42994;51.606;9.988;2023-08-06T08:40:29;1.63;;;1.52;;
57113;SDS011;42994;51.606;9.988;2023-08-06T08:42:59;4.03;;;1.75;;
57113;SDS011;42994;51.606;9.988;2023-08-06T08:45:26;2.75;;;2.08;;
57113;SDS011;42994;51.606;9.988;2023-08-06T08:47:55;2.20;;;1.52;;
57113;SDS011;42994;51.606;9.988;2023-08-06T08:50:22;1.90;;;1.75;;
57113;SDS011;42994;51.606;9.988;2023-08-06T08:52:49;1.70;;;1.35;;
57113;SDS011;42994;51.606;9.988;2023-08-06T08:55:16;1.92;;;1.83;;
57113;SDS011;42994;51.606;9.988;2023-08-06T08:57:46;2.40;;;1.60;;
57113;SDS011;42994;51.606;9.988;2023-08-06T09:00:14;4.85;;;1.92;;
57113;SDS011;42994;51.606;9.988;2023-08-06T09:02:41;2.45;;;1.70;;
57113;SDS011;42994;51.606;9.988;2023-08-06T09:05:08;1.73;;;1.63;;
57113;SDS011;42994;51.606;9.988;2023-08-06T09:07:37;1.83;;;1.67;;
57113;SDS011;42994;51.606;9.988;2023-08-06T09:10:08;4.07;;;1.77;;
57113;SDS011;42994;51.606;9.988;2023-08-06T09:12:37;3.17;;;1.73;;
57113;SDS011;42994;51.606;9.988;2023-08-06T09:15:04;3.03;;;1.80;;
57113;SDS011;42994;51.606;9.988;2023-08-06T09:17:32;2.95;;;1.63;;
57113;SDS011;42994;51.606;9.988;2023-08-06T09:19:59;3.28;;;1.80;;
57113;SDS011;42994;51.606;9.988;2023-08-06T09:22:35;3.65;;;1.85;;
57113;SDS011;42994;51.606;9.988;2023-08-06T09:25:02;2.63;;;1.45;;
57113;SDS011;42994;51.606;9.988;2023-08-06T09:27:34;2.00;;;1.60;;
57113;SDS011;42994;51.606;9.988;2023-08-06T09:30:02;2.72;;;1.65;;
57113;SDS011;42994;51.606;9.988;2023-08-06T09:32:37;3.17;;;1.52;;
57113;SDS011;42994;51.606;9.988;2023-08-06T09:35:15;2.28;;;1.60;;
57113;SDS011;42994;51.606;9.988;2023-08-06T09:37:42;3.60;;;1.93;;
57113;SDS011;42994;51.606;9.988;2023-08-06T09:40:22;2.95;;;1.60;;
57113;SDS011;42994;51.606;9.988;2023-08-06T09:42:50;2.05;;;1.63;;
57113;SDS011;42994;51.606;9.988;2023-08-06T09:45:17;2.70;;;1.95;;
57113;SDS011;42994;51.606;9.988;2023-08-06T09:47:45;2.20;;;2.00;;
57113;SDS011;42994;51.606;9.988;2023-08-06T09:50:14;3.67;;;2.03;;
57113;SDS011;42994;51.606;9.988;2023-08-06T09:52:41;5.25;;;2.20;;
57113;SDS011;42994;51.606;9.988;2023-08-06T09:55:09;2.95;;;1.88;;
57113;SDS011;42994;51.606;9.988;2023-08-06T09:57:38;6.45;;;2.58;;
57113;SDS011;42994;51.606;9.988;2023-08-06T10:00:06;2.28;;;2.08;;
57113;SDS011;42994;51.606;9.988;2023-08-06T10:02:38;2.70;;;1.92;;
57113;SDS011;42994;51.606;9.988;2023-08-06T10:05:07;2.10;;;1.80;;
57113;SDS011;42994;51.606;9.988;2023-08-06T10:07:35;2.78;;;2.03;;
57113;SDS011;42994;51.606;9.988;2023-08-06T10:10:04;2.45;;;2.25;;
57113;SDS011;42994;51.606;9.988;2023-08-06T10:12:32;4.63;;;1.90;;
57113;SDS011;42994;51.606;9.988;2023-08-06T10:15:01;4.45;;;1.67;;
57113;SDS011;42994;51.606;9.988;2023-08-06T10:17:32;1.80;;;1.63;;
57113;SDS011;42994;51.606;9.988;2023-08-06T10:20:00;5.90;;;1.90;;
57113;SDS011;42994;51.606;9.988;2023-08-06T10:22:33;2.92;;;1.75;;
57113;SDS011;42994;51.606;9.988;2023-08-06T10:25:01;2.58;;;1.80;;
57113;SDS011;42994;51.606;9.988;2023-08-06T10:27:30;3.33;;;1.60;;
57113;SDS011;42994;51.606;9.988;2023-08-06T10:32:49;2.53;;;1.77;;
57113;SDS011;42994;51.606;9.988;2023-08-06T10:35:29;4.57;;;1.85;;
57113;SDS011;42994;51.606;9.988;2023-08-06T10:37:59;4.63;;;2.03;;
57113;SDS011;42994;51.606;9.988;2023-08-06T10:40:29;1.33;;;1.15;;
57113;SDS011;42994;51.606;9.988;2023-08-06T10:42:58;2.45;;;1.50;;
57113;SDS011;42994;51.606;9.988;2023-08-06T10:45:25;2.95;;;1.70;;
57113;SDS011;42994;51.606;9.988;2023-08-06T10:47:54;1.75;;;1.63;;
57113;SDS011;42994;51.606;9.988;2023-08-06T10:50:21;2.13;;;1.50;;
57113;SDS011;42994;51.606;9.988;2023-08-06T10:52:48;2.55;;;1.67;;
57113;SDS011;42994;51.606;9.988;2023-08-06T10:55:23;2.53;;;1.38;;
57113;SDS011;42994;51.606;9.988;2023-08-06T10:57:50;1.85;;;1.40;;
57113;SDS011;42994;51.606;9.988;2023-08-06T11:00:17;7.45;;;1.88;;
57113;SDS011;42994;51.606;9.988;2023-08-06T11:02:43;1.42;;;1.30;;
57113;SDS011;42994;51.606;9.988;2023-08-06T11:05:12;4.53;;;1.40;;
57113;SDS011;42994;51.606;9.988;2023-08-06T11:07:39;3.55;;;1.63;;
57113;SDS011;42994;51.606;9.988;2023-08-06T11:10:06;2.53;;;1.42;;
57113;SDS011;42994;51.606;9.988;2023-08-06T11:12:36;1.88;;;1.50;;
57113;SDS011;42994;51.606;9.988;2023-08-06T11:15:03;3.67;;;1.38;;
57113;SDS011;42994;51.606;9.988;2023-08-06T11:17:31;2.50;;;1.50;;
57113;SDS011;42994;51.606;9.988;2023-08-06T11:19:59;1.95;;;1.50;;
57113;SDS011;42994;51.606;9.988;2023-08-06T11:22:26;2.38;;;1.50;;
57113;SDS011;42994;51.606;9.988;2023-08-06T11:24:53;2.67;;;1.40;;
57113;SDS011;42994;51.606;9.988;2023-08-06T11:27:20;4.25;;;1.48;;
57113;SDS011;42994;51.606;9.988;2023-08-06T11:29:48;1.70;;;1.33;;
57113;SDS011;42994;51.606;9.988;2023-08-06T11:32:15;4.30;;;1.40;;
57113;SDS011;42994;51.606;9.988;2023-08-06T11:34:41;8.75;;;1.65;;
57113;SDS011;42994;51.606;9.988;2023-08-06T11:37:09;2.08;;;1.40;;
57113;SDS011;42994;51.606;9.988;2023-08-06T11:39:37;2.05;;;1.27;;
57113;SDS011;42994;51.606;9.988;2023-08-06T11:42:04;1.80;;;1.50;;
57113;SDS011;42994;51.606;9.988;2023-08-06T11:44:32;3.95;;;1.70;;
57113;SDS011;42994;51.606;9.988;2023-08-06T11:47:03;2.95;;;1.60;;
57113;SDS011;42994;51.606;9.988;2023-08-06T11:49:40;1.70;;;1.40;;
57113;SDS011;42994;51.606;9.988;2023-08-06T11:52:10;2.38;;;1.45;;
57113;SDS011;42994;51.606;9.988;2023-08-06T11:54:39;2.80;;;1.70;;
57113;SDS011;42994;51.606;9.988;2023-08-06T11:57:07;4.78;;;1.70;;
57113;SDS011;42994;51.606;9.988;2023-08-06T11:59:33;1.50;;;1.40;;
57113;SDS011;42994;51.606;9.988;2023-08-06T12:02:01;1.58;;;1.45;;
57113;SDS011;42994;51.606;9.988;2023-08-06T12:04:32;1.65;;;1.10;;
57113;SDS011;42994;51.606;9.988;2023-08-06T12:07:25;2.50;;;1.00;;
57113;SDS011;42994;51.606;9.988;2023-08-06T12:09:52;3.92;;;1.50;;
57113;SDS011;42994;51.606;9.988;2023-08-06T12:12:19;2.65;;;1.45;;
57113;SDS011;42994;51.606;9.988;2023-08-06T12:14:46;1.67;;;1.27;;
57113;SDS011;42994;51.606;9.988;2023-08-06T12:17:12;3.60;;;1.80;;
57113;SDS011;42994;51.606;9.988;2023-08-06T12:19:40;5.93;;;2.78;;
57113;SDS011;42994;51.606;9.988;2023-08-06T12:22:07;4.13;;;2.53;;
57113;SDS011;42994;51.606;9.988;2023-08-06T12:24:33;3.35;;;1.98;;
57113;SDS011;42994;51.606;9.988;2023-08-06T12:27:00;2.95;;;1.92;;
57113;SDS011;42994;51.606;9.988;2023-08-06T12:29:28;2.72;;;1.60;;
57113;SDS011;42994;51.606;9.988;2023-08-06T12:31:56;2.92;;;1.10;;
57113;SDS011;42994;51.606;9.988;2023-08-06T12:34:22;2.10;;;1.45;;
57113;SDS011;42994;51.606;9.988;2023-08-06T12:36:50;2.30;;;1.02;;
57113;SDS011;42994;51.606;9.988;2023-08-06T12:39:17;1.30;;;1.20;;
57113;SDS011;42994;51.606;9.988;2023-08-06T12:41:43;2.13;;;1.27;;
57113;SDS011;42994;51.606;9.988;2023-08-06T12:44:11;1.90;;;1.30;;
57113;SDS011;42994;51.606;9.988;2023-08-06T12:46:37;1.58;;;1.13;;
57113;SDS011;42994;51.606;9.988;2023-08-06T12:49:04;3.90;;;1.77;;
57113;SDS011;42994;51.606;9.988;2023-08-06T12:51:31;1.58;;;0.90;;
57113;SDS011;42994;51.606;9.988;2023-08-06T12:54:00;2.03;;;1.17;;
57113;SDS011;42994;51.606;9.988;2023-08-06T12:56:26;1.35;;;1.17;;
57113;SDS011;42994;51.606;9.988;2023-08-06T12:58:54;2.92;;;1.20;;
57113;SDS011;42994;51.606;9.988;2023-08-06T13:01:20;1.38;;;1.23;;
57113;SDS011;42994;51.606;9.988;2023-08-06T13:03:47;2.85;;;1.27;;
57113;SDS011;42994;51.606;9.988;2023-08-06T13:06:14;1.83;;;1.52;;
57113;SDS011;42994;51.606;9.988;2023-08-06T13:08:40;1.75;;;1.33;;
57113;SDS011;42994;51.606;9.988;2023-08-06T13:11:08;2.25;;;1.10;;
57113;SDS011;42994;51.606;9.988;2023-08-06T13:13:35;2.00;;;0.90;;
57113;SDS011;42994;51.606;9.988;2023-08-06T13:16:02;2.78;;;1.10;;
57113;SDS011;42994;51.606;9.988;2023-08-06T13:18:29;1.23;;;1.13;;
57113;SDS011;42994;51.606;9.988;2023-08-06T13:20:56;2.45;;;1.42;;
57113;SDS011;42994;51.606;9.988;2023-08-06T13:23:23;3.17;;;1.35;;
57113;SDS011;42994;51.606;9.988;2023-08-06T13:25:49;1.20;;;1.10;;
57113;SDS011;42994;51.606;9.988;2023-08-06T13:28:17;2.42;;;1.10;;
57113;SDS011;42994;51.606;9.988;2023-08-06T13:30:44;1.50;;;1.10;;
57113;SDS011;42994;51.606;9.988;2023-08-06T13:33:11;1.95;;;1.38;;
57113;SDS011;42994;51.606;9.988;2023-08-06T13:35:37;1.20;;;1.10;;
57113;SDS011;42994;51.606;9.988;2023-08-06T13:38:04;1.80;;;1.10;;
57113;SDS011;42994;51.606;9.988;2023-08-06T13:40:33;4.10;;;1.50;;
57113;SDS011;42994;51.606;9.988;2023-08-06T13:43:00;2.75;;;1.58;;
57113;SDS011;42994;51.606;9.988;2023-08-06T13:45:28;4.05;;;1.23;;
57113;SDS011;42994;51.606;9.988;2023-08-06T13:47:56;2.22;;;1.23;;
57113;SDS011;42994;51.606;9.988;2023-08-06T13:50:23;1.40;;;0.82;;
57113;SDS011;42994;51.606;9.988;2023-08-06T13:52:50;1.55;;;1.20;;
57113;SDS011;42994;51.606;9.988;2023-08-06T13:55:18;1.73;;;1.27;;
57113;SDS011;42994;51.606;9.988;2023-08-06T13:57:45;1.20;;;1.00;;
57113;SDS011;42994;51.606;9.988;2023-08-06T14:00:11;1.17;;;1.08;;
57113;SDS011;42994;51.606;9.988;2023-08-06T14:02:40;2.53;;;1.30;;
57113;SDS011;42994;51.606;9.988;2023-08-06T14:05:09;2.35;;;1.60;;
57113;SDS011;42994;51.606;9.988;2023-08-06T14:07:35;2.63;;;1.35;;
57113;SDS011;42994;51.606;9.988;2023-08-06T14:10:02;1.63;;;1.20;;
57113;SDS011;42994;51.606;9.988;2023-08-06T14:12:29;1.70;;;1.30;;
57113;SDS011;42994;51.606;9.988;2023-08-06T14:14:57;3.85;;;1.70;;
57113;SDS011;42994;51.606;9.988;2023-08-06T14:17:24;1.63;;;1.33;;
57113;SDS011;42994;51.606;9.988;2023-08-06T14:19:52;2.63;;;1.55;;
57113;SDS011;42994;51.606;9.988;2023-08-06T14:22:18;1.88;;;1.40;;
57113;SDS011;42994;51.606;9.988;2023-08-06T14:24:45;3.20;;;1.40;;
57113;SDS011;42994;51.606;9.988;2023-08-06T14:27:12;3.80;;;1.58;;
57113;SDS011;42994;51.606;9.988;2023-08-06T14:29:39;1.25;;;0.98;;
57113;SDS011;42994;51.606;9.988;2023-08-06T14:32:06;3.03;;;1.48;;
57113;SDS011;42994;51.606;9.988;2023-08-06T14:34:33;2.50;;;1.30;;
57113;SDS011;42994;51.606;9.988;2023-08-06T14:37:01;1.50;;;1.40;;
57113;SDS011;42994;51.606;9.988;2023-08-06T14:39:28;3.05;;;1.50;;
57113;SDS011;42994;51.606;9.988;2023-08-06T14:41:55;7.13;;;1.50;;
57113;SDS011;42994;51.606;9.988;2023-08-06T14:44:21;2.70;;;1.25;;
57113;SDS011;42994;51.606;9.988;2023-08-06T14:46:48;1.30;;;1.20;;
57113;SDS011;42994;51.606;9.988;2023-08-06T14:49:15;3.05;;;1.02;;
57113;SDS011;42994;51.606;9.988;2023-08-06T14:51:41;2.97;;;1.50;;
57113;SDS011;42994;51.606;9.988;2023-08-06T14:54:09;3.67;;;2.03;;
57113;SDS011;42994;51.606;9.988;2023-08-06T14:56:36;6.88;;;2.13;;